sensor_id;sensor_type;location;lat;lon;timestamp;pressure;altitude;pressure_sealevel;temperature;humidity
71642;BME280;60657;50.122;14.468;2022-12-01T00:01:13;99067.03689742943;;;4.382391088731211;76.14122224765393
71642;BME280;60657;50.122;14.468;2022-12-01T00:04:29;99064.12065209646;;;4.507896543831542;76.11261158159762
71642;BME280;60657;50.122;14.468;2022-12-01T00:07:47;99070.68714713157;;;4.449149309529261;76.16792553597314
71642;BME280;60657;50.122;14.468;2022-12-01T00:11:03;99067.71822301584;;;4.5399404898146045;75.97146562905317
71642;BME280;60657;50.122;14.468;2022-12-01T00:14:19;99067.71822301584;;;4.545281147478448;76.05539024948501
71642;BME280;60657;50.122;14.468;2022-12-01T00:17:35;99069.99700360923;;;4.288929579613949;76.5265125505455
71642;BME280;60657;50.122;14.468;2022-12-01T00:20:50;99066.24700479237;;;4.3717097734035235;76.3949034866865
71642;BME280;60657;50.122;14.468;2022-12-01T00:24:07;99063.87695174327;;;4.40909437705043;76.33005264362555
71642;BME280;60657;50.122;14.468;2022-12-01T00:27:24;99065.30938797553;;;4.342336156252387;76.59708552681774
71642;BME280;60657;50.122;14.468;2022-12-01T00:30:40;99064.86193454894;;;4.206149385824368;76.90417334248875
71642;BME280;60657;50.122;14.468;2022-12-01T00:33:55;99062.00232727069;;;4.318303196765086;76.72297245746547
71642;BME280;60657;50.122;14.468;2022-12-01T00:37:11;99061.85407169544;;;4.291599908445868;76.86030365453574
71642;BME280;60657;50.122;14.468;2022-12-01T00:40:27;99061.70507144542;;;4.219501029983981;76.95948729686427
71642;BME280;60657;50.122;14.468;2022-12-01T00:43:42;99062.34441235763;;;4.179446097505149;77.30663004501412
71642;BME280;60657;50.122;14.468;2022-12-01T00:46:58;99063.43307598586;;;4.278248264286262;77.12352178225376
71642;BME280;60657;50.122;14.468;2022-12-01T00:50:13;99063.97261770297;;;4.216830701152055;77.17883573662928
71642;BME280;60657;50.122;14.468;2022-12-01T00:53:29;99073.303903759;;;4.272907606622418;77.05104142824445
71642;BME280;60657;50.122;14.468;2022-12-01T00:56:45;99069.49411537555;;;4.128709849698637;77.54695963988708
71642;BME280;60657;50.122;14.468;2022-12-01T01:00:06;99059.03787708498;;;4.198138399328606;77.31807431143663
71642;BME280;60657;50.122;14.468;2022-12-01T01:03:23;99055.0916931965;;;4.20347905699245;77.37529564354925
71642;BME280;60657;50.122;14.468;2022-12-01T01:06:39;99053.41353481106;;;4.120698863202868;77.43060959792477
71642;BME280;60657;50.122;14.468;2022-12-01T01:09:54;99054.89227066166;;;4.102006561379419;77.4420538643473
71642;BME280;60657;50.122;14.468;2022-12-01T01:13:10;99059.03787708498;;;4.1607537956817;77.19790951400016
71642;BME280;60657;50.122;14.468;2022-12-01T01:16:27;99058.7445157367;;;4.320973525597012;76.65239948119326
71642;BME280;60657;50.122;14.468;2022-12-01T01:19:43;99052.72323293387;;;4.369039444571605;76.3205157549401
71642;BME280;60657;50.122;14.468;2022-12-01T01:23:00;99057.80696269481;;;4.443808651865417;75.72922865644313
71642;BME280;60657;50.122;14.468;2022-12-01T01:26:16;99061.01496641037;;;4.318303196765086;76.28236820019836
71642;BME280;60657;50.122;14.468;2022-12-01T01:29:35;99059.68170928412;;;4.36636911573968;76.32814526588845
71642;BME280;60657;50.122;14.468;2022-12-01T01:32:51;99053.90646204504;;;4.342336156252387;76.32814526588845
71642;BME280;60657;50.122;14.468;2022-12-01T01:36:07;99052.92043634669;;;4.302281223773555;76.59327077134355
71642;BME280;60657;50.122;14.468;2022-12-01T01:39:23;99060.69271794125;;;3.9391165026321815;78.31563286793316
71642;BME280;60657;50.122;14.468;2022-12-01T01:42:39;99046.47685545767;;;3.891050583657588;78.38048371099413
71642;BME280;60657;50.122;14.468;2022-12-01T01:45:55;99059.32141386725;;;4.037918669413294;77.72625314717327
71642;BME280;60657;50.122;14.468;2022-12-01T01:49:11;99056.3931680529;;;3.9177538719768066;78.04097047379263
71642;BME280;60657;50.122;14.468;2022-12-01T01:52:27;99057.91648251432;;;3.877698939497975;77.9570458533608
71642;BME280;60657;50.122;14.468;2022-12-01T01:55:43;99057.70829724654;;;3.891050583657588;77.79301136797132
71642;BME280;60657;50.122;14.468;2022-12-01T01:58:59;99056.0817842767;;;3.8670176241702876;77.7796597238117
71642;BME280;60657;50.122;14.468;2022-12-01T02:02:15;99055.45040042159;;;4.005874723430232;77.43060959792477
71642;BME280;60657;50.122;14.468;2022-12-01T02:05:31;99065.52230647017;;;3.9631494621194747;77.43251697566185
71642;BME280;60657;50.122;14.468;2022-12-01T02:08:49;99063.31329048;;;3.9631494621194747;77.43633173113604
71642;BME280;60657;50.122;14.468;2022-12-01T02:12:09;99061.634720082;;;3.9604791332875564;77.35049973296712
71642;BME280;60657;50.122;14.468;2022-12-01T02:15:36;99056.49630206228;;;3.89906157015335;77.38483253223468
71642;BME280;60657;50.122;14.468;2022-12-01T02:19:07;99054.76622212875;;;3.840314335851069;77.62134737163348
71642;BME280;60657;50.122;14.468;2022-12-01T02:22:47;99051.20204017517;;;3.738841840238038;77.93034256504158
71642;BME280;60657;50.122;14.468;2022-12-01T02:26:32;99055.24244877932;;;3.722819867246507;78.1783016708629
71642;BME280;60657;50.122;14.468;2022-12-01T02:30:02;99050.20652064789;;;3.6747539482719134;78.30418860151065
71642;BME280;60657;50.122;14.468;2022-12-01T02:33:24;99047.05758956149;;;3.709468223086901;78.1649500267033
71642;BME280;60657;50.122;14.468;2022-12-01T02:36:49;99048.52791026632;;;3.6240177004654015;78.30418860151065
71642;BME280;60657;50.122;14.468;2022-12-01T02:40:12;99052.14552576088;;;3.525215533684289;78.60364690623331
71642;BME280;60657;50.122;14.468;2022-12-01T02:43:39;99048.2131208221;;;3.5492484931715893;78.53498130769817
71642;BME280;60657;50.122;14.468;2022-12-01T02:47:03;99042.65290125163;;;3.570611123826964;78.49874113069352
71642;BME280;60657;50.122;14.468;2022-12-01T02:50:27;99050.88888082586;;;3.575951781490808;78.48157473105974
71642;BME280;60657;50.122;14.468;2022-12-01T02:53:47;99040.03034038357;;;3.5358968490119764;78.69138628213932
71642;BME280;60657;50.122;14.468;2022-12-01T02:57:03;99035.09960932177;;;3.5812924391546517;78.52735179674983
71642;BME280;60657;50.122;14.468;2022-12-01T03:00:19;99029.95931012166;;;3.525215533684289;78.56740672922865
71642;BME280;60657;50.122;14.468;2022-12-01T03:03:38;99031.53252367525;;;3.538567177843902;78.5922026398108
71642;BME280;60657;50.122;14.468;2022-12-01T03:07:19;99036.46262622172;;;3.5198748760204452;78.575036240177
71642;BME280;60657;50.122;14.468;2022-12-01T03:10:51;99034.67820231154;;;3.4344243533989456;78.98130769817655
71642;BME280;60657;50.122;14.468;2022-12-01T03:14:12;99036.46262622172;;;3.5198748760204452;78.81345845731289
71642;BME280;60657;50.122;14.468;2022-12-01T03:17:42;99035.62333552825;;;3.4985122453650703;78.71618219272145
71642;BME280;60657;50.122;14.468;2022-12-01T03:21:07;99043.28245366675;;;3.538567177843902;78.5769436179141
71642;BME280;60657;50.122;14.468;2022-12-01T03:24:30;99033.10548773328;;;3.5305561913481327;78.69710841535057
71642;BME280;60657;50.122;14.468;2022-12-01T03:27:49;99032.52950684729;;;3.58396276798657;78.5464255741207
71642;BME280;60657;50.122;14.468;2022-12-01T03:31:09;99030.90347756889;;;3.621347371633476;78.48348210879682
71642;BME280;60657;50.122;14.468;2022-12-01T03:34:32;99029.85402699187;;;3.5893034256504137;78.47394522011139
71642;BME280;60657;50.122;14.468;2022-12-01T03:37:56;99030.3754931103;;;3.4504463263904768;78.81727321278706
71642;BME280;60657;50.122;14.468;2022-12-01T03:41:20;99036.56811085172;;;3.575951781490808;78.70092317082475
71642;BME280;60657;50.122;14.468;2022-12-01T03:44:43;99025.02906301236;;;3.5652704661631205;78.71427481498436
71642;BME280;60657;50.122;14.468;2022-12-01T03:48:07;99022.61628525735;;;3.5572594796673513;78.7085526817731
71642;BME280;60657;50.122;14.468;2022-12-01T03:51:25;99031.16154768608;;;3.4477759975585585;78.87640192263676
71642;BME280;60657;50.122;14.468;2022-12-01T03:54:49;99035.98386405023;;;3.3890287632562774;79.14534218356603
71642;BME280;60657;50.122;14.468;2022-12-01T03:58:19;99039.8040331075;;;3.340962844281684;79.23117418173496
71642;BME280;60657;50.122;14.468;2022-12-01T04:01:43;99041.85951721577;;;3.370336461432821;79.0766765850309
71642;BME280;60657;50.122;14.468;2022-12-01T04:05:00;99043.43115756747;;;3.4103913939116524;79.1205462729839
71642;BME280;60657;50.122;14.468;2022-12-01T04:08:15;99049.4676174541;;;3.4985122453650703;78.8249027237354
71642;BME280;60657;50.122;14.468;2022-12-01T04:11:31;99049.76943861537;;;3.3463035019455276;79.24452582589456
71642;BME280;60657;50.122;14.468;2022-12-01T04:14:47;99036.66218392244;;;3.2955672541390086;79.46768902113375
71642;BME280;60657;50.122;14.468;2022-12-01T04:18:03;99045.78815047457;;;3.343633173113602;79.44670786602579
71642;BME280;60657;50.122;14.468;2022-12-01T04:21:19;99036.93018352827;;;3.370336461432821;79.23498893720912
71642;BME280;60657;50.122;14.468;2022-12-01T04:24:34;99034.19781219045;;;3.407721065079727;79.14534218356603
71642;BME280;60657;50.122;14.468;2022-12-01T04:27:50;99042.10539769985;;;3.3836881055924337;79.08621347371634
71642;BME280;60657;50.122;14.468;2022-12-01T04:31:06;99036.74033571329;;;3.2154573891813527;79.517280842298
71642;BME280;60657;50.122;14.468;2022-12-01T04:34:21;99054.93560584499;;;3.2207980468451964;79.55542839703975
71642;BME280;60657;50.122;14.468;2022-12-01T04:37:37;99048.21863167822;;;3.22613870450904;79.36087586785688
71642;BME280;60657;50.122;14.468;2022-12-01T04:40:53;99058.29419039149;;;3.26886396581979;79.00038147554741
71642;BME280;60657;50.122;14.468;2022-12-01T04:44:09;99062.82578787846;;;3.055237659266041;79.52300297550927
71642;BME280;60657;50.122;14.468;2022-12-01T04:47:25;99066.5085729642;;;2.924391546501866;80.09521629663539
71642;BME280;60657;50.122;14.468;2022-12-01T04:50:41;99064.84641058139;;;3.0365453574425914;80.23064011596857
71642;BME280;60657;50.122;14.468;2022-12-01T04:53:56;99075.82101916679;;;3.0231937132829785;79.99412527656978
71642;BME280;60657;50.122;14.468;2022-12-01T04:57:12;99071.73434698142;;;3.025864042114904;79.87586785687037
71642;BME280;60657;50.122;14.468;2022-12-01T05:00:28;99062.27029675881;;;2.8976882581826473;80.16006713969635
71642;BME280;60657;50.122;14.468;2022-12-01T05:03:44;99061.60013437315;;;2.9777981231403032;80.07995727473869
71642;BME280;60657;50.122;14.468;2022-12-01T05:07:02;99059.97694503341;;;2.937743190661479;80.08377203021287
71642;BME280;60657;50.122;14.468;2022-12-01T05:10:17;99061.8252036749;;;3.004501411459529;80.05897611963073
71642;BME280;60657;50.122;14.468;2022-12-01T05:13:33;99064.0065783933;;;3.0071717402914473;80.00938429846647
71642;BME280;60657;50.122;14.468;2022-12-01T05:16:50;99064.73311711845;;;3.0739299610894975;79.91020065613795
71642;BME280;60657;50.122;14.468;2022-12-01T05:20:06;99056.78665556938;;;3.012512397955291;79.94834821087969
71642;BME280;60657;50.122;14.468;2022-12-01T05:23:23;99044.47124724138;;;3.0605783169298846;79.8873121232929
71642;BME280;60657;50.122;14.468;2022-12-01T05:26:40;99051.96490902085;;;2.937743190661479;80.18867780575265
71642;BME280;60657;50.122;14.468;2022-12-01T05:29:56;99056.83234850495;;;2.932402532997635;80.29358358129244
71642;BME280;60657;50.122;14.468;2022-12-01T05:33:12;99057.49998484516;;;2.860303654535741;80.43854428931105
71642;BME280;60657;50.122;14.468;2022-12-01T05:36:27;99068.30386335195;;;2.9217212176699476;80.4461738002594
71642;BME280;60657;50.122;14.468;2022-12-01T05:39:43;99056.10692817467;;;2.820248722056917;80.3565270466163
71642;BME280;60657;50.122;14.468;2022-12-01T05:42:59;99066.5085729642;;;2.8042267490653856;80.43854428931105
71642;BME280;60657;50.122;14.468;2022-12-01T05:46:14;99077.13908934555;;;2.9056992446784164;80.36987869077592
71642;BME280;60657;50.122;14.468;2022-12-01T05:49:30;99068.30386335195;;;2.9270618753337914;80.28023193713283
71642;BME280;60657;50.122;14.468;2022-12-01T05:52:46;99070.84981278396;;;2.7321278706034917;80.7418173495079
71642;BME280;60657;50.122;14.468;2022-12-01T05:56:01;99080.09099456205;;;2.7908751049057727;80.74372472724498
71642;BME280;60657;50.122;14.468;2022-12-01T05:59:17;99066.5085729642;;;2.8255893797207605;80.23445487144274
71642;BME280;60657;50.122;14.468;2022-12-01T06:02:33;99071.77868626665;;;2.9083695735103348;80.10475318532082
71642;BME280;60657;50.122;14.468;2022-12-01T06:05:49;99080.96112224426;;;2.9350728618295534;79.87586785687037
71642;BME280;60657;50.122;14.468;2022-12-01T06:09:05;99073.45861090248;;;2.8923476005188036;79.78240634775311
71642;BME280;60657;50.122;14.468;2022-12-01T06:12:20;99077.54364581575;;;2.916380560006104;79.97695887693598
71642;BME280;60657;50.122;14.468;2022-12-01T06:15:36;99077.92103502965;;;2.8496223392080537;79.95407034409094
71642;BME280;60657;50.122;14.468;2022-12-01T06:18:53;99073.85662810925;;;2.5906004425116365;80.84672312504769
71642;BME280;60657;50.122;14.468;2022-12-01T06:22:08;99070.96707175644;;;2.7374685282673354;80.65407797360189
71642;BME280;60657;50.122;14.468;2022-12-01T06:25:25;99079.36796747369;;;2.777523460746167;80.43472953383689
71642;BME280;60657;50.122;14.468;2022-12-01T06:28:40;99075.94901925023;;;2.7241168841077297;80.58922713054093
71642;BME280;60657;50.122;14.468;2022-12-01T06:31:56;99089.4495808257;;;2.798886091401542;80.3889524681468
71642;BME280;60657;50.122;14.468;2022-12-01T06:35:12;99092.45872137856;;;2.7882047760738544;80.57206073090715
71642;BME280;60657;50.122;14.468;2022-12-01T06:38:29;99091.91168538773;;;2.8122377355611476;80.23445487144274
71642;BME280;60657;50.122;14.468;2022-12-01T06:41:46;99082.29541483341;;;2.857633325703823;80.24589913786527
71642;BME280;60657;50.122;14.468;2022-12-01T06:45:02;99095.50537667154;;;2.8896772716868853;80.03799496452278
71642;BME280;60657;50.122;14.468;2022-12-01T06:48:19;99090.9842091901;;;2.969787136644541;80.0189211871519
71642;BME280;60657;50.122;14.468;2022-12-01T06:51:34;99101.84811740462;;;3.012512397955291;79.74044403753719
71642;BME280;60657;50.122;14.468;2022-12-01T06:54:50;99097.76215613235;;;3.0231937132829785;79.54589150835432
71642;BME280;60657;50.122;14.468;2022-12-01T06:58:06;99110.19228764973;;;3.047226672770279;79.61646448462653
71642;BME280;60657;50.122;14.468;2022-12-01T07:01:21;99108.74078977479;;;3.121995880064091;79.49629968719005
71642;BME280;60657;50.122;14.468;2022-12-01T07:04:37;99109.36333484635;;;3.2635233081559463;78.96986343175402
71642;BME280;60657;50.122;14.468;2022-12-01T07:07:53;99108.01460109523;;;3.159380483710997;79.21782253757534
71642;BME280;60657;50.122;14.468;2022-12-01T07:11:09;99108.29802759482;;;3.276874952315559;79.18539711604487
71642;BME280;60657;50.122;14.468;2022-12-01T07:14:27;99109.1945375278;;;3.303578240634778;78.94125276569771
71642;BME280;60657;50.122;14.468;2022-12-01T07:17:43;99122.74859292217;;;3.3756771190966646;78.67421988250553
71642;BME280;60657;50.122;14.468;2022-12-01T07:20:58;99120.73019663646;;;3.303578240634778;79.11863889524682
71642;BME280;60657;50.122;14.468;2022-12-01T07:24:14;99124.54084321679;;;3.3916990920881958;78.59411001754788
71642;BME280;60657;50.122;14.468;2022-12-01T07:27:31;99124.42884617127;;;3.437094682230871;78.47013046463722
71642;BME280;60657;50.122;14.468;2022-12-01T07:30:46;99128.79137868664;;;3.284885938811321;78.7962920576791
71642;BME280;60657;50.122;14.468;2022-12-01T07:34:02;99122.73812196043;;;3.2581826504921025;79.04234378576334
71642;BME280;60657;50.122;14.468;2022-12-01T07:37:19;99138.24352295368;;;3.31158922713054;78.82871747920959
71642;BME280;60657;50.122;14.468;2022-12-01T07:40:34;99133.54706195918;;;3.3970397497520395;78.94316014343481
71642;BME280;60657;50.122;14.468;2022-12-01T07:43:50;99141.77813015417;;;3.3730067902647463;78.88021667811093
71642;BME280;60657;50.122;14.468;2022-12-01T07:47:06;99133.60440549024;;;3.3970397497520395;79.078583962768
71642;BME280;60657;50.122;14.468;2022-12-01T07:50:21;99141.77813015417;;;3.3596551461051334;79.07095445181965
71642;BME280;60657;50.122;14.468;2022-12-01T07:53:37;99145.51734956312;;;3.247501335164415;79.47722590981918
71642;BME280;60657;50.122;14.468;2022-12-01T07:56:53;99141.23227115335;;;3.4985122453650703;79.13771267261768
71642;BME280;60657;50.122;14.468;2022-12-01T08:00:09;99148.39831321349;;;3.5305561913481327;78.19356069275959
71642;BME280;60657;50.122;14.468;2022-12-01T08:03:26;99144.41775358115;;;3.6293583581292452;78.27557793545434
71642;BME280;60657;50.122;14.468;2022-12-01T08:06:42;99136.61655439863;;;3.7254901960784323;77.8254367895018
71642;BME280;60657;50.122;14.468;2022-12-01T08:09:58;99139.70530976921;;;3.744182497901882;77.94369420920118
71642;BME280;60657;50.122;14.468;2022-12-01T08:13:13;99138.91968409682;;;3.7788967727168696;77.96467536430914
71642;BME280;60657;50.122;14.468;2022-12-01T08:16:29;99145.01674651618;;;3.826962691691463;77.69001297016861
71642;BME280;60657;50.122;14.468;2022-12-01T08:19:45;99143.55207979077;;;3.8376440070191506;77.3390554665446
71642;BME280;60657;50.122;14.468;2022-12-01T08:23:01;99146.12571584976;;;3.8509956511787564;77.27611200122072
71642;BME280;60657;50.122;14.468;2022-12-01T08:26:17;99141.51214644664;;;3.9017318989852754;77.12924391546503
71642;BME280;60657;50.122;14.468;2022-12-01T08:29:34;99144.87183673098;;;3.936446173800256;76.97474631876096
71642;BME280;60657;50.122;14.468;2022-12-01T08:32:52;99143.60572439671;;;3.853665980010682;77.13115129320211
71642;BME280;60657;50.122;14.468;2022-12-01T08:36:08;99142.03282399378;;;3.8456549935149127;77.01098649576562
71642;BME280;60657;50.122;14.468;2022-12-01T08:39:24;99140.67223396176;;;3.8723582818341313;77.22461280231937
71642;BME280;60657;50.122;14.468;2022-12-01T08:42:40;99144.87183673098;;;3.957808804455631;76.73823147936217
71642;BME280;60657;50.122;14.468;2022-12-01T08:45:57;99133.63954616975;;;4.011215381094075;76.90608072022583
71642;BME280;60657;50.122;14.468;2022-12-01T08:49:13;99125.2418133023;;;3.9658197909514;76.8812848096437
71642;BME280;60657;50.122;14.468;2022-12-01T08:52:30;99126.9213276228;;;3.9524681467917873;76.73060196841382
71642;BME280;60657;50.122;14.468;2022-12-01T08:55:46;99141.61791469829;;;3.9044022278171937;76.99191271839474
71642;BME280;60657;50.122;14.468;2022-12-01T08:59:03;99143.08591706706;;;3.861676966506444;77.06248569466698
71642;BME280;60657;50.122;14.468;2022-12-01T09:02:20;99144.39208095623;;;3.7655451285572568;77.2341496910048
71642;BME280;60657;50.122;14.468;2022-12-01T09:05:39;99135.52663219259;;;3.861676966506444;77.56031128404669
71642;BME280;60657;50.122;14.468;2022-12-01T09:08:54;99133.74026132566;;;3.907072556649119;77.52407110704203
71642;BME280;60657;50.122;14.468;2022-12-01T09:12:10;99137.88649319665;;;3.949797817959869;77.58510719462882
71642;BME280;60657;50.122;14.468;2022-12-01T09:15:27;99121.98733612646;;;3.9631494621194747;77.4267948424506
71642;BME280;60657;50.122;14.468;2022-12-01T09:18:44;99120.51598150171;;;3.8643472953383693;77.17502098115511
71642;BME280;60657;50.122;14.468;2022-12-01T09:22:01;99134.58360236212;;;3.9978637369344625;77.09300373846037
71642;BME280;60657;50.122;14.468;2022-12-01T09:25:17;99145.13547618379;;;3.9551384756237127;76.79354543373769
71642;BME280;60657;50.122;14.468;2022-12-01T09:28:32;99133.74382306811;;;3.995193408102537;76.87365529869535
71642;BME280;60657;50.122;14.468;2022-12-01T09:31:48;99126.65179920242;;;4.120698863202868;76.558937972076
71642;BME280;60657;50.122;14.468;2022-12-01T09:35:04;99130.06181495156;;;4.134050507362481;76.47501335164417
71642;BME280;60657;50.122;14.468;2022-12-01T09:38:19;99130.26623026261;;;4.243533989471274;76.25566491187915
71642;BME280;60657;50.122;14.468;2022-12-01T09:41:36;99135.60801392472;;;4.294270237277793;76.02868696116579
71642;BME280;60657;50.122;14.468;2022-12-01T09:44:56;99129.34195732497;;;4.353017471580074;75.78263523308156
71642;BME280;60657;50.122;14.468;2022-12-01T09:48:19;99128.45268305238;;;4.51857785915923;75.91805905241473
71642;BME280;60657;50.122;14.468;2022-12-01T09:51:42;99129.63874267919;;;4.625391012436104;75.18562600137331
71642;BME280;60657;50.122;14.468;2022-12-01T09:54:58;99128.20494421235;;;4.665445944914929;74.87472343022812
71642;BME280;60657;50.122;14.468;2022-12-01T09:58:16;99122.49799481205;;;4.860379949645228;74.38643472953383
71642;BME280;60657;50.122;14.468;2022-12-01T10:01:36;99124.77903174941;;;4.710841535057604;74.4932478828107
71642;BME280;60657;50.122;14.468;2022-12-01T10:04:58;99129.90949631811;;;4.801632715342947;74.60006103608758
71642;BME280;60657;50.122;14.468;2022-12-01T10:08:19;99126.55243509178;;;4.839017318989853;74.80796520943008
71642;BME280;60657;50.122;14.468;2022-12-01T10:11:39;99130.56378645304;;;5.036621652552071;74.42267490653849
71642;BME280;60657;50.122;14.468;2022-12-01T10:15:01;99137.36846683144;;;4.959182116426334;74.84420538643472
71642;BME280;60657;50.122;14.468;2022-12-01T10:18:33;99124.45768116922;;;5.039291981383997;74.51232166018158
71642;BME280;60657;50.122;14.468;2022-12-01T10:22:06;99118.76113090084;;;4.9137865262836655;75.55184252689402
71642;BME280;60657;50.122;14.468;2022-12-01T10:25:44;99115.30579127402;;;5.413138017853058;74.23765926604105
71642;BME280;60657;50.122;14.468;2022-12-01T10:29:10;99103.28659065721;;;5.722896162355994;72.74227512016479
71642;BME280;60657;50.122;14.468;2022-12-01T10:32:28;99100.47839880054;;;5.947203784237431;72.14335851071947
71642;BME280;60657;50.122;14.468;2022-12-01T10:35:56;99094.85667746647;;;5.939192797741661;71.21828030823224
71642;BME280;60657;50.122;14.468;2022-12-01T10:39:14;99099.63989292353;;;5.9098191805905245;71.31174181734951
71642;BME280;60657;50.122;14.468;2022-12-01T10:42:35;99108.27206875193;;;6.072709239337762;71.43572137026017
71642;BME280;60657;50.122;14.468;2022-12-01T10:45:55;99101.07944647965;;;6.529335469596397;70.66132600900282
71642;BME280;60657;50.122;14.468;2022-12-01T10:49:18;99098.22119875337;;;6.9432364385442895;68.38010223544671
71642;BME280;60657;50.122;14.468;2022-12-01T10:52:34;99079.44229966102;;;7.450598916609444;67.03540093080034
71642;BME280;60657;50.122;14.468;2022-12-01T10:55:56;99074.29150343669;;;8.235675593194479;64.70077058060578
71642;BME280;60657;50.122;14.468;2022-12-01T10:59:22;99072.7679133616;;;8.705653467612727;62.224994277866784
71642;BME280;60657;50.122;14.468;2022-12-01T11:02:41;99070.64951890435;;;8.991378652628363;61.15304798962387
71642;BME280;60657;50.122;14.468;2022-12-01T11:05:58;99045.67613257119;;;9.389257648584724;59.426871137560084
71642;BME280;60657;50.122;14.468;2022-12-01T11:09:18;99056.13508030605;;;9.613565270466161;58.01350423437857
71642;BME280;60657;50.122;14.468;2022-12-01T11:12:38;99062.33608764026;;;9.496070801861599;58.46555275806821
71642;BME280;60657;50.122;14.468;2022-12-01T11:15:55;99053.47695095744;;;9.757763027389942;57.773174639505605
71642;BME280;60657;50.122;14.468;2022-12-01T11:19:17;99052.73579379244;;;9.853894865339129;56.39795529106584
71642;BME280;60657;50.122;14.468;2022-12-01T11:22:42;99046.30391471332;;;10.02212558175021;56.39604791332876
71642;BME280;60657;50.122;14.468;2022-12-01T11:25:59;99055.89323401422;;;10.321202410925459;53.96795605401694
71642;BME280;60657;50.122;14.468;2022-12-01T11:29:24;99053.77259377379;;;10.104905775539791;54.061417563134206
71642;BME280;60657;50.122;14.468;2022-12-01T11:32:50;99052.40792921378;;;10.16632333867399;53.6932936598764
71642;BME280;60657;50.122;14.468;2022-12-01T11:36:08;99047.70174648552;;;9.685664148928055;55.73990997177081
71642;BME280;60657;50.122;14.468;2022-12-01T11:39:24;99049.10110503735;;;9.429312581063556;57.26009002822919
71642;BME280;60657;50.122;14.468;2022-12-01T11:42:46;99042.83535659402;;;9.634927901121536;57.28297856107424
71642;BME280;60657;50.122;14.468;2022-12-01T11:46:05;99035.52741663564;;;9.653620202944992;56.932021057450214
71642;BME280;60657;50.122;14.468;2022-12-01T11:49:25;99030.03971219777;;;10.024795910582135;56.216754406042575
71642;BME280;60657;50.122;14.468;2022-12-01T11:52:44;99037.16393151203;;;9.658960860608836;56.83474479285878
71642;BME280;60657;50.122;14.468;2022-12-01T11:56:18;99032.52144195967;;;9.458686198214693;58.110780498970016
71642;BME280;60657;50.122;14.468;2022-12-01T11:59:36;99033.76258051104;;;9.127565423056382;59.259021896696424
71642;BME280;60657;50.122;14.468;2022-12-01T12:02:57;99049.3202592848;;;8.983367666132601;60.07156481269551